Station History

Weather Underground - logo

Station Historical Data
Daily Summary for November 6, 2017 Units:  English    Metric   Both
« Previous Day
Next Day »
Daily Weekly Monthly Yearly Custom
  High: Low: Average:
Temperature: 65.8 °F 44.1 °F 53 °F
Dew Point: 48.4 °F 41.1 °F 45.3 °F
Humidity: 92 % 49 % 77 %
Wind Speed: 3.5 mph 0.0 mph 0.3 mph
Wind Gust: 3.5 mph - -
Wind:- - SSW
Pressure: 30.17 in 30.07 in -
Precipitation: 0.00 in    
Historical Graphs
 
 
Tabular Data for November 6, 2017
Time Temperature Dew Point Pressure Wind Wind Speed Wind Gust Humidity Rainfall Rate (Hourly)
00:01 45.0 °F 41.7 °F 30.11 in Calm     88 % 0.00 in
00:06 44.9 °F 41.6 °F 30.11 in Calm     88 % 0.00 in
00:11 44.8 °F 41.5 °F 30.10 in Calm     88 % 0.00 in
00:16 44.9 °F 41.9 °F 30.10 in Calm     89 % 0.00 in
00:21 45.1 °F 41.8 °F 30.10 in Calm     88 % 0.00 in
00:23 45.1 °F 41.8 °F 30.10 in Calm     88 % 0.00 in
00:28 45.0 °F 41.7 °F 30.10 in Calm     88 % 0.00 in
00:33 45.1 °F 41.8 °F 30.10 in Calm     88 % 0.00 in
00:38 45.1 °F 42.1 °F 30.10 in Calm     89 % 0.00 in
00:43 45.3 °F 42.2 °F 30.11 in Calm     89 % 0.00 in
00:48 45.6 °F 42.5 °F 30.11 in Calm     89 % 0.00 in
00:53 45.9 °F 42.8 °F 30.11 in Calm     89 % 0.00 in
00:58 46.0 °F 42.6 °F 30.11 in Calm     88 % 0.00 in
01:03 46.1 °F 42.7 °F 30.11 in Calm     88 % 0.00 in
01:08 46.2 °F 42.8 °F 30.11 in Calm     88 % 0.00 in
01:13 46.3 °F 42.9 °F 30.12 in Calm     88 % 0.00 in
01:18 46.4 °F 43.0 °F 30.12 in Calm     88 % 0.00 in
01:23 46.5 °F 43.1 °F 30.12 in Calm     88 % 0.00 in
01:28 46.6 °F 43.2 °F 30.12 in Calm     88 % 0.00 in
01:33 46.7 °F 43.3 °F 30.11 in Calm     88 % 0.00 in
01:38 46.8 °F 43.1 °F 30.11 in Calm     87 % 0.00 in
01:43 46.9 °F 43.2 °F 30.12 in Calm     87 % 0.00 in
01:48 47.0 °F 43.3 °F 30.12 in Calm     87 % 0.00 in
01:53 47.2 °F 43.5 °F 30.12 in Calm     87 % 0.00 in
01:58 47.3 °F 43.6 °F 30.12 in Calm     87 % 0.00 in
02:03 47.5 °F 43.8 °F 30.11 in SSE 1.2 mph 1.2 mph 87 % 0.00 in
02:08 47.6 °F 43.9 °F 30.11 in Calm     87 % 0.00 in
02:13 47.7 °F 43.7 °F 30.11 in Calm     86 % 0.00 in
02:23 48.2 °F 44.2 °F 30.11 in Calm     86 % 0.00 in
02:28 48.3 °F 44.3 °F 30.11 in Calm     86 % 0.00 in
02:33 48.4 °F 44.4 °F 30.11 in Calm     86 % 0.00 in
02:38 48.4 °F 44.1 °F 30.11 in Calm     85 % 0.00 in
02:43 48.5 °F 44.5 °F 30.11 in Calm     86 % 0.00 in
02:48 48.5 °F 44.5 °F 30.11 in Calm     86 % 0.00 in
02:53 48.6 °F 44.3 °F 30.11 in Calm     85 % 0.00 in
02:58 48.7 °F 44.4 °F 30.11 in Calm     85 % 0.00 in
03:03 48.7 °F 44.1 °F 30.11 in Calm     84 % 0.00 in
03:08 48.9 °F 44.6 °F 30.10 in Calm     85 % 0.00 in
03:13 49.0 °F 44.7 °F 30.10 in Calm     85 % 0.00 in
03:18 49.1 °F 44.8 °F 30.10 in Calm     85 % 0.00 in
03:23 49.1 °F 44.8 °F 30.10 in Calm     85 % 0.00 in
03:28 49.1 °F 44.8 °F 30.10 in Calm     85 % 0.00 in
03:33 49.1 °F 45.1 °F 30.11 in Calm     86 % 0.00 in
03:38 49.1 °F 45.1 °F 30.10 in Calm     86 % 0.00 in
03:43 49.0 °F 45.0 °F 30.11 in Calm     86 % 0.00 in
03:48 49.0 °F 45.0 °F 30.10 in Calm     86 % 0.00 in
03:53 48.9 °F 44.9 °F 30.10 in Calm     86 % 0.00 in
03:58 48.8 °F 44.8 °F 30.10 in Calm     86 % 0.00 in
04:03 48.7 °F 44.7 °F 30.10 in Calm     86 % 0.00 in
04:08 48.5 °F 44.5 °F 30.11 in Calm     86 % 0.00 in
04:13 48.3 °F 44.6 °F 30.11 in Calm     87 % 0.00 in
04:18 48.0 °F 44.3 °F 30.11 in Calm     87 % 0.00 in
04:23 47.8 °F 44.1 °F 30.11 in Calm     87 % 0.00 in
04:28 47.6 °F 44.2 °F 30.11 in Calm     88 % 0.00 in
04:33 47.5 °F 44.1 °F 30.12 in Calm     88 % 0.00 in
04:38 47.3 °F 44.2 °F 30.12 in Calm     89 % 0.00 in
04:43 47.3 °F 43.9 °F 30.12 in Calm     88 % 0.00 in
04:48 47.2 °F 44.1 °F 30.12 in Calm     89 % 0.00 in
04:53 47.3 °F 44.2 °F 30.12 in Calm     89 % 0.00 in
04:58 47.4 °F 44.3 °F 30.11 in Calm     89 % 0.00 in
05:03 47.4 °F 44.3 °F 30.12 in Calm     89 % 0.00 in
05:08 47.6 °F 44.5 °F 30.12 in Calm     89 % 0.00 in
05:09 47.6 °F 44.5 °F 30.12 in Calm     89 % 0.00 in
05:14 47.6 °F 44.5 °F 30.12 in Calm     89 % 0.00 in
05:19 47.7 °F 44.6 °F 30.12 in Calm     89 % 0.00 in
05:24 47.6 °F 44.5 °F 30.12 in Calm     89 % 0.00 in
05:29 47.5 °F 44.4 °F 30.12 in Calm     89 % 0.00 in
05:34 47.3 °F 44.2 °F 30.12 in Calm     89 % 0.00 in
05:39 47.0 °F 43.9 °F 30.12 in Calm     89 % 0.00 in
05:44 46.6 °F 43.5 °F 30.12 in Calm     89 % 0.00 in
05:49 46.3 °F 43.5 °F 30.12 in Calm     90 % 0.00 in
05:54 46.0 °F 43.2 °F 30.12 in Calm     90 % 0.00 in
05:59 45.8 °F 43.3 °F 30.13 in Calm     91 % 0.00 in
06:04 45.6 °F 43.1 °F 30.13 in Calm     91 % 0.00 in
06:09 45.5 °F 43.0 °F 30.13 in Calm     91 % 0.00 in
06:14 45.2 °F 42.7 °F 30.13 in Calm     91 % 0.00 in
06:19 45.1 °F 42.6 °F 30.14 in Calm     91 % 0.00 in
06:24 45.0 °F 42.8 °F 30.14 in Calm     92 % 0.00 in
06:29 44.9 °F 42.4 °F 30.14 in Calm     91 % 0.00 in
06:34 44.9 °F 42.7 °F 30.14 in Calm     92 % 0.00 in
06:39 44.9 °F 42.7 °F 30.14 in Calm     92 % 0.00 in
06:44 45.0 °F 42.8 °F 30.14 in Calm     92 % 0.00 in
06:49 45.1 °F 42.9 °F 30.15 in Calm     92 % 0.00 in
06:54 45.3 °F 43.1 °F 30.15 in Calm     92 % 0.00 in
06:59 45.5 °F 43.3 °F 30.15 in Calm     92 % 0.00 in
07:04 45.7 °F 43.5 °F 30.16 in Calm     92 % 0.00 in
07:09 45.9 °F 43.7 °F 30.16 in Calm     92 % 0.00 in
07:14 46.1 °F 43.9 °F 30.16 in Calm     92 % 0.00 in
07:19 46.3 °F 44.1 °F 30.16 in Calm     92 % 0.00 in
07:24 46.6 °F 44.4 °F 30.16 in Calm     92 % 0.00 in
07:29 46.9 °F 44.7 °F 30.16 in Calm     92 % 0.00 in
07:34 47.1 °F 44.9 °F 30.17 in Calm     92 % 0.00 in
07:39 47.3 °F 44.8 °F 30.17 in Calm     91 % 0.00 in
07:44 47.5 °F 45.0 °F 30.17 in Calm     91 % 0.00 in
07:49 47.6 °F 45.1 °F 30.17 in Calm     91 % 0.00 in
07:54 47.8 °F 45.0 °F 30.17 in Calm     90 % 0.00 in
07:59 48.0 °F 45.2 °F 30.17 in Calm     90 % 0.00 in
08:05 48.4 °F 45.3 °F 30.17 in Calm     89 % 0.00 in
08:10 48.8 °F 45.4 °F 30.17 in Calm     88 % 0.00 in
08:15 49.3 °F 45.9 °F 30.17 in Calm     88 % 0.00 in
08:20 49.7 °F 46.0 °F 30.17 in Calm     87 % 0.00 in
08:25 50.0 °F 46.0 °F 30.16 in SE 1.2 mph 1.2 mph 86 % 0.00 in
08:30 50.2 °F 45.9 °F 30.17 in SE 1.2 mph 1.2 mph 85 % 0.00 in
08:35 50.4 °F 46.1 °F 30.17 in SE 1.2 mph 1.2 mph 85 % 0.00 in
08:40 50.8 °F 46.1 °F 30.16 in ESE 1.2 mph 1.2 mph 84 % 0.00 in
08:45 51.0 °F 46.0 °F 30.16 in ESE 1.2 mph 1.2 mph 83 % 0.00 in
08:50 51.3 °F 46.0 °F 30.16 in ESE 1.2 mph 1.2 mph 82 % 0.00 in
08:55 51.5 °F 46.2 °F 30.16 in ESE 2.3 mph 2.3 mph 82 % 0.00 in
09:00 51.9 °F 46.3 °F 30.16 in ESE 1.2 mph 1.2 mph 81 % 0.00 in
09:05 52.5 °F 46.8 °F 30.16 in Calm     81 % 0.00 in
09:10 53.4 °F 47.0 °F 30.16 in South 1.2 mph   79 % 0.00 in
09:15 53.5 °F 46.1 °F 30.15 in WNW 1.2 mph 1.2 mph 76 % 0.00 in
09:20 53.5 °F 46.8 °F 30.15 in Calm     78 % 0.00 in
09:25 54.0 °F 46.6 °F 30.15 in Calm     76 % 0.00 in
09:30 54.1 °F 47.0 °F 30.15 in Calm     77 % 0.00 in
09:35 54.7 °F 46.9 °F 30.15 in Calm     75 % 0.00 in
09:40 54.8 °F 46.7 °F 30.15 in Calm     74 % 0.00 in
09:45 55.1 °F 47.3 °F 30.15 in Calm     75 % 0.00 in
09:50 55.6 °F 47.1 °F 30.15 in Calm     73 % 0.00 in
09:55 56.2 °F 47.7 °F 30.15 in Calm     73 % 0.00 in
10:00 56.7 °F 47.0 °F 30.15 in ESE 1.2 mph 1.2 mph 70 % 0.00 in
10:05 56.6 °F 48.4 °F 30.15 in Calm     74 % 0.00 in
10:10 57.2 °F 47.5 °F 30.15 in WNW 2.3 mph 2.3 mph 70 % 0.00 in
10:15 57.6 °F 47.1 °F 30.15 in WSW 1.0 mph 1.0 mph 68 % 0.00 in
10:20 58.2 °F 46.9 °F 30.15 in East 1.2 mph 1.2 mph 66 % 0.00 in
10:25 58.7 °F 47.4 °F 30.15 in South 1.2 mph 1.2 mph 66 % 0.00 in
10:30 58.8 °F 47.1 °F 30.15 in Calm     65 % 0.00 in
10:36 59.2 °F 47.8 °F 30.15 in South 2.0 mph 2.0 mph 66 % 0.00 in
10:41 59.8 °F 48.4 °F 30.15 in ESE 1.2 mph   66 % 0.00 in
10:46 60.3 °F 48.1 °F 30.15 in East 2.3 mph 2.3 mph 64 % 0.00 in
10:51 60.4 °F 47.3 °F 30.15 in Calm   1.2 mph 62 % 0.00 in
10:56 60.4 °F 47.7 °F 30.15 in NE 1.2 mph 1.2 mph 63 % 0.00 in
11:01 60.6 °F 47.9 °F 30.14 in East 1.2 mph 1.2 mph 63 % 0.00 in
11:06 60.8 °F 47.3 °F 30.14 in East 3.5 mph 3.5 mph 61 % 0.00 in
11:11 61.3 °F 47.3 °F 30.14 in NW 1.2 mph   60 % 0.00 in
11:16 61.5 °F 47.5 °F 30.14 in NW 1.2 mph   60 % 0.00 in
11:21 61.8 °F 47.3 °F 30.14 in South 3.5 mph 3.5 mph 59 % 0.00 in
11:26 62.3 °F 47.8 °F 30.14 in Calm     59 % 0.00 in
11:31 62.6 °F 47.1 °F 30.14 in Calm     57 % 0.00 in
11:36 62.9 °F 47.9 °F 30.13 in NNW 1.2 mph 1.2 mph 58 % 0.00 in
11:41 63.1 °F 47.1 °F 30.13 in SSE 3.5 mph 3.5 mph 56 % 0.00 in
11:51 63.2 °F 47.7 °F 30.12 in ENE 2.3 mph 2.3 mph 57 % 0.00 in
11:56 63.4 °F 47.4 °F 30.12 in ENE 1.2 mph 1.2 mph 56 % 0.00 in
12:01 63.8 °F 48.3 °F 30.12 in NNW 1.2 mph 1.2 mph 57 % 0.00 in
12:06 63.9 °F 47.4 °F 30.12 in North 2.3 mph 2.3 mph 55 % 0.00 in
12:11 63.6 °F 47.1 °F 30.12 in NW 2.3 mph 2.3 mph 55 % 0.00 in
12:16 63.4 °F 46.9 °F 30.12 in WSW 2.3 mph 2.3 mph 55 % 0.00 in
12:21 64.1 °F 48.1 °F 30.11 in SSE 1.2 mph 1.2 mph 56 % 0.00 in
12:26 64.7 °F 47.2 °F 30.11 in SW 1.2 mph   53 % 0.00 in
12:31 64.7 °F 46.7 °F 30.11 in SSE 2.3 mph 2.3 mph 52 % 0.00 in
12:36 64.5 °F 47.0 °F 30.11 in SW 1.2 mph   53 % 0.00 in
12:41 64.7 °F 47.7 °F 30.11 in SSW 2.3 mph   54 % 0.00 in
12:46 64.7 °F 47.2 °F 30.11 in WNW 1.2 mph   53 % 0.00 in
12:51 65.1 °F 48.0 °F 30.11 in Calm   0.1 mph 54 % 0.00 in
12:56 65.2 °F 46.6 °F 30.11 in West 3.5 mph 3.5 mph 51 % 0.00 in
13:01 64.6 °F 46.6 °F 30.10 in Calm     52 % 0.00 in
13:06 64.8 °F 46.8 °F 30.10 in West 1.0 mph 1.0 mph 52 % 0.00 in
13:11 65.1 °F 47.0 °F 30.10 in WSW 2.0 mph 2.0 mph 52 % 0.00 in
13:16 65.1 °F 46.5 °F 30.09 in Calm     51 % 0.00 in
13:21 65.6 °F 47.5 °F 30.10 in Calm     52 % 0.00 in
13:26 65.8 °F 47.2 °F 30.09 in WNW 3.5 mph 3.5 mph 51 % 0.00 in
13:31 65.2 °F 46.6 °F 30.09 in WNW 1.2 mph   51 % 0.00 in
13:37 65.2 °F 46.1 °F 30.09 in Calm     50 % 0.00 in
13:42 65.2 °F 47.6 °F 30.09 in Calm     53 % 0.00 in
13:47 65.5 °F 46.9 °F 30.08 in Calm     51 % 0.00 in
13:52 65.6 °F 47.0 °F 30.08 in WNW 1.2 mph 1.2 mph 51 % 0.00 in
13:57 65.4 °F 47.3 °F 30.08 in NW 2.3 mph 2.3 mph 52 % 0.00 in
14:02 65.5 °F 46.9 °F 30.08 in NW 1.2 mph 1.2 mph 51 % 0.00 in
14:07 65.6 °F 46.5 °F 30.08 in NNW 1.2 mph 1.2 mph 50 % 0.00 in
14:12 65.6 °F 47.0 °F 30.08 in WNW 1.2 mph 1.2 mph 51 % 0.00 in
14:17 65.7 °F 46.5 °F 30.08 in West 1.2 mph 1.2 mph 50 % 0.00 in
14:22 65.6 °F 47.0 °F 30.08 in Calm   0.1 mph 51 % 0.00 in
14:27 65.6 °F 46.5 °F 30.08 in West 1.2 mph 1.2 mph 50 % 0.00 in
14:32 65.3 °F 46.2 °F 30.08 in WNW 2.3 mph 2.3 mph 50 % 0.00 in
14:37 65.0 °F 45.9 °F 30.08 in NW 2.3 mph 2.3 mph 50 % 0.00 in
14:42 64.5 °F 44.9 °F 30.08 in WNW 1.2 mph   49 % 0.00 in
14:47 64.3 °F 45.3 °F 30.07 in Calm     50 % 0.00 in
14:52 64.3 °F 45.8 °F 30.07 in SSW 1.2 mph   51 % 0.00 in
14:58 64.3 °F 46.3 °F 30.07 in Calm     52 % 0.00 in
15:03 64.0 °F 46.0 °F 30.08 in Calm     52 % 0.00 in
15:08 63.8 °F 46.3 °F 30.07 in Calm     53 % 0.00 in
15:13 63.7 °F 46.2 °F 30.08 in WSW 1.2 mph 1.2 mph 53 % 0.00 in
15:18 63.6 °F 46.6 °F 30.08 in Calm     54 % 0.00 in
15:23 63.6 °F 46.1 °F 30.07 in Calm     53 % 0.00 in
15:28 63.6 °F 45.6 °F 30.08 in Calm     52 % 0.00 in
15:33 63.6 °F 46.1 °F 30.07 in Calm     53 % 0.00 in
15:38 63.5 °F 46.1 °F 30.08 in Calm     53 % 0.00 in
15:43 63.3 °F 45.9 °F 30.08 in Calm     53 % 0.00 in
15:48 63.1 °F 46.2 °F 30.08 in Calm     54 % 0.00 in
15:53 62.8 °F 46.4 °F 30.07 in Calm     55 % 0.00 in
15:58 62.6 °F 46.7 °F 30.07 in Calm     56 % 0.00 in
16:03 62.4 °F 46.5 °F 30.07 in Calm     56 % 0.00 in
16:08 62.3 °F 46.4 °F 30.08 in North 1.2 mph   56 % 0.00 in
16:13 62.1 °F 46.7 °F 30.08 in Calm     57 % 0.00 in
16:18 61.9 °F 47.0 °F 30.08 in Calm     58 % 0.00 in
16:23 61.6 °F 47.1 °F 30.07 in Calm     59 % 0.00 in
16:28 61.2 °F 47.2 °F 30.08 in Calm     60 % 0.00 in
16:33 60.5 °F 47.0 °F 30.08 in Calm     61 % 0.00 in
16:38 60.0 °F 46.5 °F 30.08 in Calm     61 % 0.00 in
16:43 59.7 °F 47.1 °F 30.08 in Calm     63 % 0.00 in
16:48 59.5 °F 47.3 °F 30.07 in Calm     64 % 0.00 in
16:53 59.2 °F 47.4 °F 30.08 in Calm     65 % 0.00 in
16:58 58.8 °F 47.9 °F 30.08 in Calm     67 % 0.00 in
17:03 58.5 °F 48.0 °F 30.08 in Calm     68 % 0.00 in
17:08 58.2 °F 48.1 °F 30.08 in Calm     69 % 0.00 in
17:13 58.0 °F 47.9 °F 30.08 in Calm     69 % 0.00 in
17:18 57.8 °F 48.1 °F 30.08 in Calm     70 % 0.00 in
17:23 57.5 °F 48.2 °F 30.08 in Calm     71 % 0.00 in
17:28 57.2 °F 47.9 °F 30.08 in Calm     71 % 0.00 in
17:33 56.9 °F 47.6 °F 30.08 in Calm     71 % 0.00 in
17:38 56.7 °F 47.8 °F 30.08 in Calm     72 % 0.00 in
17:43 56.6 °F 47.7 °F 30.08 in Calm     72 % 0.00 in
17:49 56.5 °F 46.8 °F 30.09 in Calm     70 % 0.00 in
17:54 56.3 °F 47.0 °F 30.09 in Calm     71 % 0.00 in
17:59 56.2 °F 47.3 °F 30.09 in Calm     72 % 0.00 in
18:04 55.9 °F 47.4 °F 30.09 in Calm     73 % 0.00 in
18:09 55.7 °F 47.2 °F 30.09 in Calm     73 % 0.00 in
18:14 55.6 °F 47.4 °F 30.09 in Calm     74 % 0.00 in
18:19 55.4 °F 47.2 °F 30.09 in Calm     74 % 0.00 in
18:24 55.3 °F 47.5 °F 30.09 in Calm     75 % 0.00 in
18:29 55.3 °F 47.2 °F 30.09 in Calm     74 % 0.00 in
18:34 55.1 °F 47.3 °F 30.09 in Calm     75 % 0.00 in
18:39 54.8 °F 47.0 °F 30.10 in Calm     75 % 0.00 in
18:44 54.4 °F 47.0 °F 30.10 in Calm     76 % 0.00 in
18:49 54.0 °F 47.0 °F 30.10 in Calm     77 % 0.00 in
18:54 53.7 °F 47.0 °F 30.10 in Calm     78 % 0.00 in
18:59 53.4 °F 46.7 °F 30.10 in Calm     78 % 0.00 in
19:04 53.1 °F 46.8 °F 30.10 in Calm     79 % 0.00 in
19:09 52.8 °F 46.8 °F 30.10 in Calm     80 % 0.00 in
19:14 52.7 °F 46.7 °F 30.10 in Calm     80 % 0.00 in
19:19 52.5 °F 46.8 °F 30.10 in Calm     81 % 0.00 in
19:20 52.5 °F 46.8 °F 30.10 in Calm     81 % 0.00 in
19:23 52.3 °F 46.3 °F 30.10 in Calm     80 % 0.00 in
19:28 52.1 °F 46.1 °F 30.10 in Calm     80 % 0.00 in
19:33 52.0 °F 46.3 °F 30.11 in Calm     81 % 0.00 in
19:38 51.8 °F 46.2 °F 30.11 in Calm     81 % 0.00 in
19:49 51.7 °F 46.4 °F 30.11 in Calm     82 % 0.00 in
19:54 51.7 °F 46.4 °F 30.11 in Calm     82 % 0.00 in
19:59 51.6 °F 46.3 °F 30.11 in Calm     82 % 0.00 in
20:04 51.4 °F 46.1 °F 30.11 in Calm     82 % 0.00 in
20:09 51.0 °F 45.7 °F 30.11 in Calm     82 % 0.00 in
20:14 50.3 °F 45.3 °F 30.11 in Calm     83 % 0.00 in
20:19 50.1 °F 45.1 °F 30.11 in Calm     83 % 0.00 in
20:24 49.9 °F 45.3 °F 30.11 in Calm     84 % 0.00 in
20:29 49.9 °F 45.3 °F 30.12 in Calm     84 % 0.00 in
20:34 49.8 °F 45.2 °F 30.12 in Calm     84 % 0.00 in
20:39 49.8 °F 45.2 °F 30.12 in Calm     84 % 0.00 in
20:44 49.8 °F 45.2 °F 30.12 in Calm     84 % 0.00 in
20:49 49.7 °F 45.1 °F 30.12 in Calm     84 % 0.00 in
20:54 49.6 °F 45.3 °F 30.12 in Calm     85 % 0.00 in
20:59 49.5 °F 45.2 °F 30.12 in Calm     85 % 0.00 in
21:04 49.3 °F 45.0 °F 30.12 in Calm     85 % 0.00 in
21:09 49.0 °F 45.0 °F 30.12 in Calm     86 % 0.00 in
21:14 48.8 °F 44.8 °F 30.13 in Calm     86 % 0.00 in
21:19 48.6 °F 44.6 °F 30.13 in Calm     86 % 0.00 in
21:24 48.5 °F 44.8 °F 30.13 in Calm     87 % 0.00 in
21:29 48.5 °F 44.8 °F 30.13 in Calm     87 % 0.00 in
21:34 48.4 °F 44.7 °F 30.13 in Calm     87 % 0.00 in
21:39 48.3 °F 44.6 °F 30.13 in Calm     87 % 0.00 in
21:44 48.1 °F 44.4 °F 30.13 in Calm     87 % 0.00 in
21:49 47.9 °F 44.2 °F 30.13 in Calm     87 % 0.00 in
21:54 47.7 °F 44.0 °F 30.13 in Calm     87 % 0.00 in
21:59 47.6 °F 44.2 °F 30.13 in Calm     88 % 0.00 in
22:04 47.5 °F 43.8 °F 30.13 in Calm     87 % 0.00 in
22:07 47.3 °F 43.6 °F 30.13 in Calm     87 % 0.00 in
22:12 47.1 °F 43.4 °F 30.13 in Calm     87 % 0.00 in
22:17 46.6 °F 42.9 °F 30.13 in Calm     87 % 0.00 in
22:22 46.4 °F 43.0 °F 30.13 in Calm     88 % 0.00 in
22:27 46.1 °F 42.7 °F 30.13 in Calm     88 % 0.00 in
22:32 45.8 °F 42.4 °F 30.13 in Calm     88 % 0.00 in
22:37 45.8 °F 42.7 °F 30.13 in Calm     89 % 0.00 in
22:42 45.9 °F 42.8 °F 30.13 in Calm     89 % 0.00 in
22:47 46.0 °F 42.9 °F 30.13 in Calm     89 % 0.00 in
22:52 45.9 °F 42.8 °F 30.13 in Calm     89 % 0.00 in
22:57 45.7 °F 42.3 °F 30.14 in Calm     88 % 0.00 in
23:02 45.5 °F 42.2 °F 30.14 in Calm     88 % 0.00 in
23:07 45.3 °F 42.2 °F 30.14 in Calm     89 % 0.00 in
23:12 45.2 °F 42.2 °F 30.14 in Calm     89 % 0.00 in
23:17 45.3 °F 42.2 °F 30.14 in Calm     89 % 0.00 in
23:22 45.2 °F 42.2 °F 30.14 in Calm     89 % 0.00 in
23:27 45.2 °F 42.2 °F 30.14 in Calm     89 % 0.00 in
23:32 45.2 °F 42.4 °F 30.14 in Calm     90 % 0.00 in
23:37 45.1 °F 42.3 °F 30.15 in Calm     90 % 0.00 in
23:42 44.9 °F 41.9 °F 30.15 in Calm     89 % 0.00 in
23:47 44.6 °F 41.3 °F 30.15 in Calm     88 % 0.00 in
23:52 44.3 °F 41.3 °F 30.15 in Calm     89 % 0.00 in
23:57 44.1 °F 41.1 °F 30.15 in Calm     89 % 0.00 in
Park Place, Exeter, Tulare County, California, USA
Compliments of Weather Underground - 2.75 mb